createdAt,value
2019-05-03T00:02:12.192Z,89.50
2019-05-03T00:04:42.368Z,88.70
2019-05-03T00:07:11.819Z,88.90
2019-05-03T00:09:42.496Z,88.80
2019-05-03T00:12:12.668Z,89.50
2019-05-03T00:14:43.254Z,89.80
2019-05-03T00:17:12.282Z,89.60
2019-05-03T00:19:42.258Z,89.10
2019-05-03T00:22:12.418Z,89.80
2019-05-03T00:24:42.644Z,89.30
2019-05-03T00:27:12.546Z,88.90
2019-05-03T00:29:41.808Z,88.70
2019-05-03T00:32:12.323Z,88.40
2019-05-03T00:34:42.090Z,88.70
2019-05-03T00:37:14.872Z,89.00
2019-05-03T00:40:01.992Z,89.30
2019-05-03T00:42:31.743Z,89.80
2019-05-03T00:45:02.134Z,89.70
2019-05-03T00:47:30.430Z,88.70
2019-05-03T00:49:58.880Z,90.10
2019-05-03T00:52:27.317Z,90.00
2019-05-03T00:54:55.756Z,90.20
2019-05-03T00:57:24.212Z,90.40
2019-05-03T00:59:52.918Z,90.30
2019-05-03T01:02:22.328Z,90.30
2019-05-03T01:04:51.817Z,90.30
2019-05-03T01:07:22.116Z,90.70
2019-05-03T01:09:51.775Z,90.40
2019-05-03T01:12:21.965Z,90.30
2019-05-03T01:14:52.138Z,90.50
2019-05-03T01:17:22.284Z,90.80
2019-05-03T01:19:52.172Z,91.00
2019-05-03T01:22:22.436Z,91.20
2019-05-03T01:24:51.857Z,91.20
2019-05-03T01:27:22.030Z,91.20
2019-05-03T01:29:51.975Z,90.70
2019-05-03T01:32:22.275Z,91.10
2019-05-03T01:34:52.331Z,91.00
2019-05-03T01:37:22.711Z,90.80
2019-05-03T01:39:52.597Z,90.70
2019-05-03T01:42:22.618Z,88.20
2019-05-03T01:44:52.220Z,90.10
2019-05-03T01:47:47.805Z,90.40
2019-05-03T01:50:26.682Z,90.80
2019-05-03T01:52:56.826Z,90.60
2019-05-03T01:55:26.928Z,90.30
2019-05-03T01:57:55.387Z,90.00
2019-05-03T02:00:25.453Z,89.80
2019-05-03T02:03:01.904Z,90.00
2019-05-03T02:05:45.044Z,90.00
2019-05-03T02:08:14.492Z,90.40
2019-05-03T02:11:03.958Z,90.40
2019-05-03T02:13:32.430Z,90.10
2019-05-03T02:16:07.339Z,90.60
2019-05-03T02:18:35.819Z,90.60
2019-05-03T02:21:04.258Z,90.20
2019-05-03T02:23:32.721Z,90.50
2019-05-03T02:26:02.923Z,90.70
2019-05-03T02:28:32.663Z,90.60
2019-05-03T02:31:03.573Z,90.70
2019-05-03T02:33:32.922Z,91.00
2019-05-03T02:36:03.734Z,91.30
2019-05-03T02:38:33.802Z,92.00
2019-05-03T02:41:04.879Z,91.90
2019-05-03T02:43:36.469Z,92.50
2019-05-03T02:46:12.678Z,92.70
2019-05-03T02:48:48.974Z,92.10
2019-05-03T02:51:17.406Z,92.30
2019-05-03T02:53:45.968Z,92.00
2019-05-03T02:56:21.875Z,90.60
2019-05-03T02:58:46.049Z,91.90
2019-05-03T03:01:16.225Z,91.70
2019-05-03T03:03:45.758Z,91.90
2019-05-03T03:06:15.751Z,91.50
2019-05-03T03:08:45.509Z,91.30
2019-05-03T03:11:15.572Z,91.10
2019-05-03T03:13:45.783Z,91.10
2019-05-03T03:16:16.261Z,91.10
2019-05-03T03:18:45.639Z,90.60
2019-05-03T03:21:16.362Z,90.40
2019-05-03T03:24:06.315Z,90.90
2019-05-03T03:26:41.456Z,91.00
2019-05-03T03:29:07.383Z,91.40
2019-05-03T03:31:39.079Z,91.20
2019-05-03T03:34:11.022Z,90.90
2019-05-03T03:37:00.709Z,91.00
2019-05-03T03:39:22.146Z,91.30
2019-05-03T03:41:55.555Z,91.30
2019-05-03T03:44:25.706Z,91.90
2019-05-03T03:46:56.220Z,91.70
2019-05-03T03:49:26.205Z,92.10
2019-05-03T03:51:56.365Z,91.60
2019-05-03T03:54:26.025Z,91.50
2019-05-03T03:57:03.262Z,91.30
2019-05-03T03:59:27.435Z,91.00
2019-05-03T04:01:56.493Z,91.00
2019-05-03T04:04:26.339Z,91.10
2019-05-03T04:07:00.539Z,90.80
2019-05-03T04:09:27.120Z,90.80
2019-05-03T04:11:57.037Z,91.50
2019-05-03T04:14:36.201Z,90.90
2019-05-03T04:17:06.108Z,90.10
2019-05-03T04:19:39.446Z,89.60
2019-05-03T04:22:09.145Z,90.40
2019-05-03T04:24:38.168Z,90.30
2019-05-03T04:27:18.607Z,90.60
2019-05-03T04:29:38.179Z,90.50
2019-05-03T04:32:08.977Z,90.30
2019-05-03T04:34:38.327Z,90.40
2019-05-03T04:37:07.194Z,90.20
2019-05-03T04:39:36.296Z,89.80
2019-05-03T04:42:07.145Z,90.50
2019-05-03T04:44:36.795Z,91.00
2019-05-03T04:47:06.738Z,91.20
2019-05-03T04:49:37.876Z,91.40
2019-05-03T04:52:06.876Z,91.10
2019-05-03T04:54:40.080Z,90.80
2019-05-03T04:57:09.152Z,90.60
2019-05-03T04:59:38.129Z,90.30
2019-05-03T05:02:07.141Z,90.80
2019-05-03T05:04:36.035Z,91.10
2019-05-03T05:07:06.259Z,91.10
2019-05-03T05:09:35.316Z,91.00
2019-05-03T05:12:05.913Z,90.10
2019-05-03T05:14:35.379Z,89.30
2019-05-03T05:17:06.351Z,88.40
2019-05-03T05:19:36.923Z,88.90
2019-05-03T05:22:07.458Z,85.90
2019-05-03T05:24:36.445Z,85.90
2019-05-03T05:27:07.040Z,83.60
2019-05-03T05:29:37.595Z,83.70
2019-05-03T05:32:06.492Z,81.20
2019-05-03T05:34:36.374Z,81.30
2019-05-03T05:37:05.468Z,81.20
2019-05-03T05:39:35.608Z,80.50
2019-05-03T05:42:05.285Z,80.70
2019-05-03T07:14:26.990Z,67.70
2019-05-03T07:17:17.397Z,68.40
2019-05-03T07:19:46.497Z,67.00
2019-05-03T07:22:15.401Z,67.30
2019-05-03T07:24:45.581Z,66.10
2019-05-03T07:27:17.733Z,65.90
2019-05-03T07:29:46.793Z,66.30
2019-05-03T07:32:16.364Z,66.80
2019-05-03T07:34:45.425Z,65.80
2019-05-03T07:37:14.570Z,66.60
2019-05-03T07:39:45.248Z,65.20
2019-05-03T07:42:15.676Z,63.70
2019-05-03T07:44:45.019Z,65.00
2019-05-03T07:47:14.853Z,64.40
2019-05-03T07:49:44.756Z,64.30
2019-05-03T07:52:14.779Z,65.90
2019-05-03T07:54:45.147Z,65.20
2019-05-03T07:57:32.627Z,66.70
2019-05-03T08:00:01.083Z,67.60
2019-05-03T08:03:28.581Z,66.80
2019-05-03T08:05:57.025Z,67.00
2019-05-03T08:08:25.467Z,64.50
2019-05-03T08:10:59.192Z,65.70
2019-05-03T08:16:54.827Z,57.10
2019-05-03T08:19:26.726Z,55.20
2019-05-03T08:21:56.446Z,53.90
2019-05-03T08:24:25.353Z,54.60
2019-05-03T08:26:55.569Z,54.40
2019-05-03T08:29:24.868Z,53.00
2019-05-03T08:31:58.369Z,51.90
2019-05-03T08:34:31.219Z,50.20
2019-05-03T08:37:01.286Z,50.70
2019-05-03T08:39:29.752Z,54.00
2019-05-03T08:42:04.657Z,53.60
2019-05-03T08:44:35.166Z,55.30
2019-05-03T08:47:05.061Z,57.00
2019-05-03T08:49:34.808Z,56.30
2019-05-03T08:52:05.266Z,58.10
2019-05-03T08:54:34.688Z,57.70
2019-05-03T08:57:03.378Z,58.20
2019-05-03T08:59:32.734Z,57.50
2019-05-03T09:02:03.551Z,56.20
2019-05-03T09:04:37.409Z,56.80
2019-05-03T09:07:01.646Z,56.70
2019-05-03T09:10:12.346Z,57.00
2019-05-03T09:15:55.236Z,58.60
2019-05-03T09:18:25.603Z,61.40
2019-05-03T09:21:05.932Z,62.10
2019-05-03T09:23:35.675Z,61.70
2019-05-03T09:26:04.680Z,64.40
2019-05-03T09:28:34.882Z,64.90
2019-05-03T09:31:04.652Z,63.50
2019-05-03T09:33:33.109Z,64.90
2019-05-03T09:36:01.562Z,65.50
2019-05-03T09:38:30.009Z,64.30
2019-05-03T09:40:58.480Z,63.50
2019-05-03T09:43:26.912Z,62.80
2019-05-03T09:45:55.374Z,62.80
2019-05-03T09:48:25.501Z,63.10
2019-05-03T09:50:55.655Z,62.80
2019-05-03T09:53:25.838Z,62.50
2019-05-03T09:55:55.569Z,61.60
2019-05-03T09:58:26.181Z,61.10
2019-05-03T10:00:55.501Z,58.60
2019-05-03T10:03:24.197Z,58.50
2019-05-03T10:05:55.381Z,55.00
2019-05-03T10:08:25.467Z,53.40
2019-05-03T10:11:05.512Z,51.80
2019-05-03T10:13:35.507Z,51.90
2019-05-03T10:16:06.035Z,53.20
2019-05-03T10:18:35.234Z,53.70
2019-05-03T10:21:05.320Z,53.00
2019-05-03T10:23:35.892Z,50.80
2019-05-03T10:26:05.231Z,46.80
2019-05-03T10:28:33.784Z,46.70
2019-05-03T10:31:05.545Z,47.30
2019-05-03T10:33:35.611Z,46.80
2019-05-03T10:36:05.468Z,47.50
2019-05-03T10:38:34.145Z,48.70
2019-05-03T10:41:02.587Z,50.30
2019-05-03T10:43:31.220Z,51.60
2019-05-03T10:45:59.666Z,54.60
2019-05-03T10:48:28.132Z,55.10
2019-05-03T10:50:56.804Z,54.90
2019-05-03T10:53:29.686Z,55.90
2019-05-03T10:56:22.601Z,57.50
2019-05-03T10:58:49.334Z,56.90
2019-05-03T11:01:19.404Z,56.50
2019-05-03T11:03:47.880Z,56.30
2019-05-03T11:06:16.297Z,55.60
2019-05-03T11:08:45.134Z,54.60
2019-05-03T11:11:35.280Z,55.40
2019-05-03T11:14:05.426Z,55.70
2019-05-03T11:16:35.176Z,55.80
2019-05-03T11:19:05.479Z,54.60
2019-05-03T11:21:34.789Z,55.40
2019-05-03T11:24:03.448Z,56.30
2019-05-03T11:26:34.704Z,56.90
2019-05-03T11:29:02.554Z,54.50
2019-05-03T11:31:57.469Z,54.10
2019-05-03T11:34:30.547Z,51.90
2019-05-03T11:37:09.533Z,52.00
2019-05-03T11:39:37.994Z,53.80
2019-05-03T11:48:38.283Z,46.50
2019-05-03T11:54:25.021Z,43.30
2019-05-03T11:56:55.465Z,45.20
